sensor_id;sensor_type;location;lat;lon;timestamp;P1;durP1;ratioP1;P2;durP2;ratioP2
7571;SDS011;3827;49.928;8.548;2023-07-13T00:00:01;1.40;;;0.82;;
7571;SDS011;3827;49.928;8.548;2023-07-13T00:02:30;0.93;;;0.90;;
7571;SDS011;3827;49.928;8.548;2023-07-13T00:04:57;2.05;;;0.95;;
7571;SDS011;3827;49.928;8.548;2023-07-13T00:07:24;1.80;;;0.90;;
7571;SDS011;3827;49.928;8.548;2023-07-13T00:09:51;1.30;;;0.88;;
7571;SDS011;3827;49.928;8.548;2023-07-13T00:12:23;1.02;;;0.85;;
7571;SDS011;3827;49.928;8.548;2023-07-13T00:14:53;1.15;;;1.05;;
7571;SDS011;3827;49.928;8.548;2023-07-13T00:17:21;0.93;;;0.82;;
7571;SDS011;3827;49.928;8.548;2023-07-13T00:19:48;0.98;;;0.90;;
7571;SDS011;3827;49.928;8.548;2023-07-13T00:22:15;1.23;;;0.90;;
7571;SDS011;3827;49.928;8.548;2023-07-13T00:24:43;0.90;;;0.90;;
7571;SDS011;3827;49.928;8.548;2023-07-13T00:27:10;1.58;;;0.90;;
7571;SDS011;3827;49.928;8.548;2023-07-13T00:29:38;1.13;;;1.02;;
7571;SDS011;3827;49.928;8.548;2023-07-13T00:32:05;1.00;;;0.90;;
7571;SDS011;3827;49.928;8.548;2023-07-13T00:34:34;1.00;;;0.75;;
7571;SDS011;3827;49.928;8.548;2023-07-13T00:37:01;1.70;;;1.00;;
7571;SDS011;3827;49.928;8.548;2023-07-13T00:39:28;1.60;;;1.00;;
7571;SDS011;3827;49.928;8.548;2023-07-13T00:41:54;1.20;;;1.10;;
7571;SDS011;3827;49.928;8.548;2023-07-13T00:44:21;1.60;;;1.00;;
7571;SDS011;3827;49.928;8.548;2023-07-13T00:46:50;1.20;;;1.00;;
7571;SDS011;3827;49.928;8.548;2023-07-13T00:49:17;1.50;;;0.90;;
7571;SDS011;3827;49.928;8.548;2023-07-13T00:51:47;1.27;;;1.08;;
7571;SDS011;3827;49.928;8.548;2023-07-13T00:54:17;0.98;;;0.98;;
7571;SDS011;3827;49.928;8.548;2023-07-13T00:56:48;1.17;;;1.00;;
7571;SDS011;3827;49.928;8.548;2023-07-13T00:59:17;0.98;;;0.90;;
7571;SDS011;3827;49.928;8.548;2023-07-13T01:01:45;1.33;;;1.00;;
7571;SDS011;3827;49.928;8.548;2023-07-13T01:04:14;1.67;;;1.13;;
7571;SDS011;3827;49.928;8.548;2023-07-13T01:06:41;2.27;;;1.10;;
7571;SDS011;3827;49.928;8.548;2023-07-13T01:09:10;2.45;;;1.00;;
7571;SDS011;3827;49.928;8.548;2023-07-13T01:11:38;1.15;;;1.00;;
7571;SDS011;3827;49.928;8.548;2023-07-13T01:14:04;1.30;;;1.13;;
7571;SDS011;3827;49.928;8.548;2023-07-13T01:16:32;1.10;;;1.00;;
7571;SDS011;3827;49.928;8.548;2023-07-13T01:19:00;1.52;;;1.00;;
7571;SDS011;3827;49.928;8.548;2023-07-13T01:21:32;1.20;;;1.00;;
7571;SDS011;3827;49.928;8.548;2023-07-13T01:23:59;1.02;;;0.93;;
7571;SDS011;3827;49.928;8.548;2023-07-13T01:26:27;1.83;;;0.88;;
7571;SDS011;3827;49.928;8.548;2023-07-13T01:28:54;1.17;;;1.05;;
7571;SDS011;3827;49.928;8.548;2023-07-13T01:31:22;2.10;;;0.90;;
7571;SDS011;3827;49.928;8.548;2023-07-13T01:33:48;0.90;;;0.90;;
7571;SDS011;3827;49.928;8.548;2023-07-13T01:36:15;1.17;;;1.08;;
7571;SDS011;3827;49.928;8.548;2023-07-13T01:38:43;1.10;;;1.00;;
7571;SDS011;3827;49.928;8.548;2023-07-13T01:41:10;1.60;;;1.05;;
7571;SDS011;3827;49.928;8.548;2023-07-13T01:43:37;1.70;;;1.10;;
7571;SDS011;3827;49.928;8.548;2023-07-13T01:46:06;1.33;;;1.10;;
7571;SDS011;3827;49.928;8.548;2023-07-13T01:48:33;3.33;;;1.30;;
7571;SDS011;3827;49.928;8.548;2023-07-13T01:51:00;1.25;;;1.10;;
7571;SDS011;3827;49.928;8.548;2023-07-13T01:53:26;1.48;;;1.38;;
7571;SDS011;3827;49.928;8.548;2023-07-13T01:55:55;1.35;;;1.10;;
7571;SDS011;3827;49.928;8.548;2023-07-13T01:58:22;1.50;;;1.20;;
7571;SDS011;3827;49.928;8.548;2023-07-13T02:00:48;1.90;;;1.20;;
7571;SDS011;3827;49.928;8.548;2023-07-13T02:03:15;1.83;;;1.30;;
7571;SDS011;3827;49.928;8.548;2023-07-13T02:05:43;1.38;;;1.10;;
7571;SDS011;3827;49.928;8.548;2023-07-13T02:08:10;1.67;;;1.30;;
7571;SDS011;3827;49.928;8.548;2023-07-13T02:10:37;3.08;;;1.45;;
7571;SDS011;3827;49.928;8.548;2023-07-13T02:13:05;1.50;;;1.25;;
7571;SDS011;3827;49.928;8.548;2023-07-13T02:15:32;2.05;;;1.50;;
7571;SDS011;3827;49.928;8.548;2023-07-13T02:17:59;1.67;;;1.55;;
7571;SDS011;3827;49.928;8.548;2023-07-13T02:20:26;1.65;;;1.38;;
7571;SDS011;3827;49.928;8.548;2023-07-13T02:22:52;1.30;;;1.20;;
7571;SDS011;3827;49.928;8.548;2023-07-13T02:25:19;2.08;;;1.50;;
7571;SDS011;3827;49.928;8.548;2023-07-13T02:27:46;2.80;;;1.40;;
7571;SDS011;3827;49.928;8.548;2023-07-13T02:30:14;1.38;;;1.25;;
7571;SDS011;3827;49.928;8.548;2023-07-13T02:32:41;2.63;;;1.30;;
7571;SDS011;3827;49.928;8.548;2023-07-13T02:35:08;2.90;;;1.23;;
7571;SDS011;3827;49.928;8.548;2023-07-13T02:37:35;1.30;;;1.20;;
7571;SDS011;3827;49.928;8.548;2023-07-13T02:40:02;1.80;;;1.30;;
7571;SDS011;3827;49.928;8.548;2023-07-13T02:42:33;1.00;;;1.00;;
7571;SDS011;3827;49.928;8.548;2023-07-13T02:45:00;2.05;;;1.40;;
7571;SDS011;3827;49.928;8.548;2023-07-13T02:47:28;2.47;;;1.30;;
7571;SDS011;3827;49.928;8.548;2023-07-13T02:49:55;1.20;;;1.10;;
7571;SDS011;3827;49.928;8.548;2023-07-13T02:52:21;2.85;;;1.55;;
7571;SDS011;3827;49.928;8.548;2023-07-13T02:54:48;1.55;;;1.45;;
7571;SDS011;3827;49.928;8.548;2023-07-13T02:57:15;1.98;;;1.40;;
7571;SDS011;3827;49.928;8.548;2023-07-13T02:59:42;1.55;;;1.40;;
7571;SDS011;3827;49.928;8.548;2023-07-13T03:02:09;1.95;;;1.40;;
7571;SDS011;3827;49.928;8.548;2023-07-13T03:04:37;1.70;;;1.38;;
7571;SDS011;3827;49.928;8.548;2023-07-13T03:07:04;1.70;;;1.25;;
7571;SDS011;3827;49.928;8.548;2023-07-13T03:09:34;1.48;;;1.33;;
7571;SDS011;3827;49.928;8.548;2023-07-13T03:12:02;1.50;;;1.40;;
7571;SDS011;3827;49.928;8.548;2023-07-13T03:14:29;3.80;;;1.60;;
7571;SDS011;3827;49.928;8.548;2023-07-13T03:16:55;3.13;;;1.50;;
7571;SDS011;3827;49.928;8.548;2023-07-13T03:19:22;1.70;;;1.60;;
7571;SDS011;3827;49.928;8.548;2023-07-13T03:21:50;1.97;;;1.50;;
7571;SDS011;3827;49.928;8.548;2023-07-13T03:24:17;2.60;;;1.50;;
7571;SDS011;3827;49.928;8.548;2023-07-13T03:26:44;1.60;;;1.50;;
7571;SDS011;3827;49.928;8.548;2023-07-13T03:29:10;2.05;;;1.40;;
7571;SDS011;3827;49.928;8.548;2023-07-13T03:31:37;1.73;;;1.33;;
7571;SDS011;3827;49.928;8.548;2023-07-13T03:34:04;2.10;;;1.50;;
7571;SDS011;3827;49.928;8.548;2023-07-13T03:36:31;2.40;;;1.35;;
7571;SDS011;3827;49.928;8.548;2023-07-13T03:39:00;2.35;;;1.30;;
7571;SDS011;3827;49.928;8.548;2023-07-13T03:41:28;1.57;;;1.47;;
7571;SDS011;3827;49.928;8.548;2023-07-13T03:43:55;2.10;;;1.60;;
7571;SDS011;3827;49.928;8.548;2023-07-13T03:46:22;2.30;;;1.40;;
7571;SDS011;3827;49.928;8.548;2023-07-13T03:48:49;1.60;;;1.50;;
7571;SDS011;3827;49.928;8.548;2023-07-13T03:51:16;1.40;;;1.30;;
7571;SDS011;3827;49.928;8.548;2023-07-13T03:53:44;2.40;;;1.30;;
7571;SDS011;3827;49.928;8.548;2023-07-13T03:56:13;1.73;;;1.40;;
7571;SDS011;3827;49.928;8.548;2023-07-13T03:58:41;2.10;;;1.63;;
7571;SDS011;3827;49.928;8.548;2023-07-13T04:01:10;1.70;;;1.60;;
7571;SDS011;3827;49.928;8.548;2023-07-13T04:03:37;2.13;;;1.50;;
7571;SDS011;3827;49.928;8.548;2023-07-13T04:06:05;1.85;;;1.70;;
7571;SDS011;3827;49.928;8.548;2023-07-13T04:08:35;2.55;;;1.75;;
7571;SDS011;3827;49.928;8.548;2023-07-13T04:11:04;1.80;;;1.70;;
7571;SDS011;3827;49.928;8.548;2023-07-13T04:13:33;1.77;;;1.52;;
7571;SDS011;3827;49.928;8.548;2023-07-13T04:16:00;2.22;;;1.70;;
7571;SDS011;3827;49.928;8.548;2023-07-13T04:18:26;1.80;;;1.60;;
7571;SDS011;3827;49.928;8.548;2023-07-13T04:20:53;2.03;;;1.83;;
7571;SDS011;3827;49.928;8.548;2023-07-13T04:23:25;2.97;;;2.00;;
7571;SDS011;3827;49.928;8.548;2023-07-13T04:26:06;1.60;;;1.50;;
7571;SDS011;3827;49.928;8.548;2023-07-13T04:28:38;2.15;;;1.40;;
7571;SDS011;3827;49.928;8.548;2023-07-13T04:31:04;2.20;;;1.70;;
7571;SDS011;3827;49.928;8.548;2023-07-13T04:33:31;2.78;;;1.67;;
7571;SDS011;3827;49.928;8.548;2023-07-13T04:35:59;1.77;;;1.52;;
7571;SDS011;3827;49.928;8.548;2023-07-13T04:38:27;2.47;;;1.70;;
7571;SDS011;3827;49.928;8.548;2023-07-13T04:40:55;1.50;;;1.30;;
7571;SDS011;3827;49.928;8.548;2023-07-13T04:43:23;1.80;;;1.50;;
7571;SDS011;3827;49.928;8.548;2023-07-13T04:45:52;2.55;;;1.50;;
7571;SDS011;3827;49.928;8.548;2023-07-13T04:48:19;3.53;;;1.40;;
7571;SDS011;3827;49.928;8.548;2023-07-13T04:50:46;1.70;;;1.60;;
7571;SDS011;3827;49.928;8.548;2023-07-13T04:53:14;1.67;;;1.57;;
7571;SDS011;3827;49.928;8.548;2023-07-13T04:55:40;3.33;;;2.27;;
7571;SDS011;3827;49.928;8.548;2023-07-13T04:58:07;1.70;;;1.60;;
7571;SDS011;3827;49.928;8.548;2023-07-13T05:00:34;1.63;;;1.52;;
7571;SDS011;3827;49.928;8.548;2023-07-13T05:03:02;2.83;;;1.60;;
7571;SDS011;3827;49.928;8.548;2023-07-13T05:05:29;1.95;;;1.50;;
7571;SDS011;3827;49.928;8.548;2023-07-13T05:07:56;2.65;;;1.58;;
7571;SDS011;3827;49.928;8.548;2023-07-13T05:10:22;1.40;;;1.30;;
7571;SDS011;3827;49.928;8.548;2023-07-13T05:12:50;2.30;;;1.23;;
7571;SDS011;3827;49.928;8.548;2023-07-13T05:15:17;1.38;;;1.27;;
7571;SDS011;3827;49.928;8.548;2023-07-13T05:17:46;2.25;;;1.50;;
7571;SDS011;3827;49.928;8.548;2023-07-13T05:20:14;1.40;;;1.30;;
7571;SDS011;3827;49.928;8.548;2023-07-13T05:22:42;1.75;;;1.30;;
7571;SDS011;3827;49.928;8.548;2023-07-13T05:25:09;2.70;;;1.58;;
7571;SDS011;3827;49.928;8.548;2023-07-13T05:27:37;2.03;;;1.60;;
7571;SDS011;3827;49.928;8.548;2023-07-13T05:30:04;2.53;;;1.60;;
7571;SDS011;3827;49.928;8.548;2023-07-13T05:32:32;2.20;;;1.55;;
7571;SDS011;3827;49.928;8.548;2023-07-13T05:34:59;2.17;;;1.40;;
7571;SDS011;3827;49.928;8.548;2023-07-13T05:37:28;2.83;;;1.27;;
7571;SDS011;3827;49.928;8.548;2023-07-13T05:39:54;3.03;;;1.02;;
7571;SDS011;3827;49.928;8.548;2023-07-13T05:42:21;1.40;;;1.10;;
7571;SDS011;3827;49.928;8.548;2023-07-13T05:44:48;2.08;;;1.10;;
7571;SDS011;3827;49.928;8.548;2023-07-13T05:47:14;1.73;;;1.08;;
7571;SDS011;3827;49.928;8.548;2023-07-13T05:49:41;2.65;;;1.10;;
7571;SDS011;3827;49.928;8.548;2023-07-13T05:52:08;1.10;;;1.00;;
7571;SDS011;3827;49.928;8.548;2023-07-13T05:54:36;2.22;;;1.00;;
7571;SDS011;3827;49.928;8.548;2023-07-13T05:57:03;1.40;;;0.90;;
7571;SDS011;3827;49.928;8.548;2023-07-13T05:59:30;1.87;;;1.20;;
7571;SDS011;3827;49.928;8.548;2023-07-13T06:01:57;1.00;;;0.83;;
7571;SDS011;3827;49.928;8.548;2023-07-13T06:04:23;1.05;;;0.80;;
7571;SDS011;3827;49.928;8.548;2023-07-13T06:06:50;2.30;;;1.00;;
7571;SDS011;3827;49.928;8.548;2023-07-13T06:09:17;2.35;;;0.90;;
7571;SDS011;3827;49.928;8.548;2023-07-13T06:11:45;1.52;;;0.82;;
7571;SDS011;3827;49.928;8.548;2023-07-13T06:14:12;1.55;;;0.70;;
7571;SDS011;3827;49.928;8.548;2023-07-13T06:16:39;1.00;;;0.80;;
7571;SDS011;3827;49.928;8.548;2023-07-13T06:19:06;1.33;;;0.77;;
7571;SDS011;3827;49.928;8.548;2023-07-13T06:21:32;1.50;;;0.80;;
7571;SDS011;3827;49.928;8.548;2023-07-13T06:23:59;1.52;;;0.90;;
7571;SDS011;3827;49.928;8.548;2023-07-13T06:26:26;1.80;;;0.70;;
7571;SDS011;3827;49.928;8.548;2023-07-13T06:28:55;1.85;;;1.15;;
7571;SDS011;3827;49.928;8.548;2023-07-13T06:31:22;1.45;;;0.75;;
7571;SDS011;3827;49.928;8.548;2023-07-13T06:33:48;1.50;;;0.80;;
7571;SDS011;3827;49.928;8.548;2023-07-13T06:36:15;1.00;;;0.90;;
7571;SDS011;3827;49.928;8.548;2023-07-13T06:38:42;1.27;;;0.82;;
7571;SDS011;3827;49.928;8.548;2023-07-13T06:41:08;0.73;;;0.73;;
7571;SDS011;3827;49.928;8.548;2023-07-13T06:43:35;0.77;;;0.75;;
7571;SDS011;3827;49.928;8.548;2023-07-13T06:46:03;1.25;;;1.02;;
7571;SDS011;3827;49.928;8.548;2023-07-13T06:48:30;1.25;;;0.75;;
7571;SDS011;3827;49.928;8.548;2023-07-13T06:50:57;2.00;;;0.90;;
7571;SDS011;3827;49.928;8.548;2023-07-13T06:53:24;1.80;;;0.60;;
7571;SDS011;3827;49.928;8.548;2023-07-13T06:55:50;0.60;;;0.60;;
7571;SDS011;3827;49.928;8.548;2023-07-13T06:58:18;1.35;;;0.68;;
7571;SDS011;3827;49.928;8.548;2023-07-13T07:00:45;1.55;;;0.70;;
7571;SDS011;3827;49.928;8.548;2023-07-13T07:03:13;1.38;;;0.70;;
7571;SDS011;3827;49.928;8.548;2023-07-13T07:05:40;1.98;;;0.68;;
7571;SDS011;3827;49.928;8.548;2023-07-13T07:08:07;1.77;;;0.70;;
7571;SDS011;3827;49.928;8.548;2023-07-13T07:10:34;1.05;;;0.70;;
7571;SDS011;3827;49.928;8.548;2023-07-13T07:13:01;0.60;;;0.60;;
7571;SDS011;3827;49.928;8.548;2023-07-13T07:15:28;0.55;;;0.52;;
7571;SDS011;3827;49.928;8.548;2023-07-13T07:17:55;1.23;;;0.73;;
7571;SDS011;3827;49.928;8.548;2023-07-13T07:20:23;1.88;;;0.82;;
7571;SDS011;3827;49.928;8.548;2023-07-13T07:22:51;3.27;;;1.00;;
7571;SDS011;3827;49.928;8.548;2023-07-13T07:25:18;0.73;;;0.70;;
7571;SDS011;3827;49.928;8.548;2023-07-13T07:27:45;1.63;;;0.70;;
7571;SDS011;3827;49.928;8.548;2023-07-13T07:30:12;1.52;;;0.90;;
7571;SDS011;3827;49.928;8.548;2023-07-13T07:32:40;1.45;;;0.80;;
7571;SDS011;3827;49.928;8.548;2023-07-13T07:35:07;1.65;;;0.70;;
7571;SDS011;3827;49.928;8.548;2023-07-13T07:37:36;1.55;;;0.82;;
7571;SDS011;3827;49.928;8.548;2023-07-13T07:40:03;1.30;;;0.73;;
7571;SDS011;3827;49.928;8.548;2023-07-13T07:42:30;1.65;;;0.80;;
7571;SDS011;3827;49.928;8.548;2023-07-13T07:44:57;2.57;;;1.20;;
7571;SDS011;3827;49.928;8.548;2023-07-13T07:47:25;2.10;;;0.82;;
7571;SDS011;3827;49.928;8.548;2023-07-13T07:49:52;2.20;;;0.90;;
7571;SDS011;3827;49.928;8.548;2023-07-13T07:52:19;1.27;;;0.70;;
7571;SDS011;3827;49.928;8.548;2023-07-13T07:54:47;1.30;;;0.70;;
7571;SDS011;3827;49.928;8.548;2023-07-13T07:57:14;1.10;;;0.80;;
7571;SDS011;3827;49.928;8.548;2023-07-13T07:59:40;1.80;;;1.27;;
7571;SDS011;3827;49.928;8.548;2023-07-13T08:02:08;1.25;;;0.80;;
7571;SDS011;3827;49.928;8.548;2023-07-13T08:04:36;2.50;;;1.00;;
7571;SDS011;3827;49.928;8.548;2023-07-13T08:07:03;0.77;;;0.77;;
7571;SDS011;3827;49.928;8.548;2023-07-13T08:09:30;1.98;;;0.80;;
7571;SDS011;3827;49.928;8.548;2023-07-13T08:11:58;2.47;;;0.97;;
7571;SDS011;3827;49.928;8.548;2023-07-13T08:14:25;0.90;;;0.90;;
7571;SDS011;3827;49.928;8.548;2023-07-13T08:16:52;0.82;;;0.80;;
7571;SDS011;3827;49.928;8.548;2023-07-13T08:19:18;1.63;;;0.77;;
7571;SDS011;3827;49.928;8.548;2023-07-13T08:21:45;1.00;;;0.90;;
7571;SDS011;3827;49.928;8.548;2023-07-13T08:24:13;2.50;;;0.90;;
7571;SDS011;3827;49.928;8.548;2023-07-13T08:26:40;0.80;;;0.70;;
7571;SDS011;3827;49.928;8.548;2023-07-13T08:29:08;1.90;;;0.80;;
7571;SDS011;3827;49.928;8.548;2023-07-13T08:31:35;1.27;;;0.70;;
7571;SDS011;3827;49.928;8.548;2023-07-13T08:34:02;0.77;;;0.68;;
7571;SDS011;3827;49.928;8.548;2023-07-13T08:36:29;1.75;;;0.90;;
7571;SDS011;3827;49.928;8.548;2023-07-13T08:38:55;1.17;;;0.70;;
7571;SDS011;3827;49.928;8.548;2023-07-13T08:41:22;2.00;;;0.80;;
7571;SDS011;3827;49.928;8.548;2023-07-13T08:43:50;0.98;;;0.60;;
7571;SDS011;3827;49.928;8.548;2023-07-13T08:46:23;4.50;;;0.60;;
7571;SDS011;3827;49.928;8.548;2023-07-13T08:48:56;2.33;;;0.68;;
7571;SDS011;3827;49.928;8.548;2023-07-13T08:51:26;1.20;;;1.00;;
7571;SDS011;3827;49.928;8.548;2023-07-13T08:54:02;0.80;;;0.60;;
7571;SDS011;3827;49.928;8.548;2023-07-13T08:56:31;2.03;;;0.80;;
7571;SDS011;3827;49.928;8.548;2023-07-13T08:59:00;0.90;;;0.52;;
7571;SDS011;3827;49.928;8.548;2023-07-13T09:01:41;0.70;;;0.50;;
7571;SDS011;3827;49.928;8.548;2023-07-13T09:04:22;0.63;;;0.60;;
7571;SDS011;3827;49.928;8.548;2023-07-13T09:06:58;1.10;;;0.80;;
7571;SDS011;3827;49.928;8.548;2023-07-13T09:09:34;0.90;;;0.85;;
7571;SDS011;3827;49.928;8.548;2023-07-13T09:12:13;1.23;;;0.60;;
7571;SDS011;3827;49.928;8.548;2023-07-13T09:14:44;1.15;;;0.60;;
7571;SDS011;3827;49.928;8.548;2023-07-13T09:17:17;1.65;;;0.75;;
7571;SDS011;3827;49.928;8.548;2023-07-13T09:19:48;0.93;;;0.80;;
7571;SDS011;3827;49.928;8.548;2023-07-13T09:22:20;1.45;;;0.73;;
7571;SDS011;3827;49.928;8.548;2023-07-13T09:24:52;1.20;;;0.60;;
7571;SDS011;3827;49.928;8.548;2023-07-13T09:27:26;2.35;;;0.70;;
7571;SDS011;3827;49.928;8.548;2023-07-13T09:29:57;1.83;;;0.60;;
7571;SDS011;3827;49.928;8.548;2023-07-13T09:32:31;0.57;;;0.50;;
7571;SDS011;3827;49.928;8.548;2023-07-13T09:34:59;1.15;;;0.55;;
7571;SDS011;3827;49.928;8.548;2023-07-13T09:37:28;1.40;;;0.60;;
7571;SDS011;3827;49.928;8.548;2023-07-13T09:39:57;1.60;;;0.55;;
7571;SDS011;3827;49.928;8.548;2023-07-13T09:42:25;1.05;;;0.70;;
7571;SDS011;3827;49.928;8.548;2023-07-13T09:44:54;1.05;;;0.68;;
7571;SDS011;3827;49.928;8.548;2023-07-13T09:47:23;0.80;;;0.60;;
7571;SDS011;3827;49.928;8.548;2023-07-13T09:49:56;2.72;;;0.52;;
7571;SDS011;3827;49.928;8.548;2023-07-13T09:52:26;2.20;;;0.73;;
7571;SDS011;3827;49.928;8.548;2023-07-13T09:54:54;2.67;;;0.60;;
7571;SDS011;3827;49.928;8.548;2023-07-13T09:57:25;0.90;;;0.60;;
7571;SDS011;3827;49.928;8.548;2023-07-13T09:59:54;0.80;;;0.65;;
7571;SDS011;3827;49.928;8.548;2023-07-13T10:02:24;1.37;;;0.70;;
7571;SDS011;3827;49.928;8.548;2023-07-13T10:04:57;1.63;;;0.63;;
7571;SDS011;3827;49.928;8.548;2023-07-13T10:07:25;0.60;;;0.60;;
7571;SDS011;3827;49.928;8.548;2023-07-13T10:09:52;0.70;;;0.60;;
7571;SDS011;3827;49.928;8.548;2023-07-13T10:12:20;1.08;;;0.80;;
7571;SDS011;3827;49.928;8.548;2023-07-13T10:14:48;1.50;;;0.80;;
7571;SDS011;3827;49.928;8.548;2023-07-13T10:17:20;1.93;;;0.83;;
7571;SDS011;3827;49.928;8.548;2023-07-13T10:19:56;1.13;;;0.68;;
7571;SDS011;3827;49.928;8.548;2023-07-13T10:22:31;0.75;;;0.60;;
7571;SDS011;3827;49.928;8.548;2023-07-13T10:25:11;2.08;;;0.75;;
7571;SDS011;3827;49.928;8.548;2023-07-13T10:27:42;1.52;;;0.60;;
7571;SDS011;3827;49.928;8.548;2023-07-13T10:30:12;0.47;;;0.47;;
7571;SDS011;3827;49.928;8.548;2023-07-13T10:32:43;1.55;;;0.85;;
7571;SDS011;3827;49.928;8.548;2023-07-13T10:35:13;0.90;;;0.52;;
7571;SDS011;3827;49.928;8.548;2023-07-13T10:37:43;0.50;;;0.50;;
7571;SDS011;3827;49.928;8.548;2023-07-13T10:40:16;0.88;;;0.55;;
7571;SDS011;3827;49.928;8.548;2023-07-13T10:42:49;0.82;;;0.70;;
7571;SDS011;3827;49.928;8.548;2023-07-13T10:45:18;0.73;;;0.70;;
7571;SDS011;3827;49.928;8.548;2023-07-13T10:47:47;0.82;;;0.50;;
7571;SDS011;3827;49.928;8.548;2023-07-13T10:50:17;1.50;;;0.80;;
7571;SDS011;3827;49.928;8.548;2023-07-13T10:52:47;1.50;;;0.60;;
7571;SDS011;3827;49.928;8.548;2023-07-13T10:55:31;1.05;;;0.77;;
7571;SDS011;3827;49.928;8.548;2023-07-13T10:58:01;1.52;;;0.90;;
7571;SDS011;3827;49.928;8.548;2023-07-13T11:00:32;0.75;;;0.60;;
7571;SDS011;3827;49.928;8.548;2023-07-13T11:03:10;0.98;;;0.70;;
7571;SDS011;3827;49.928;8.548;2023-07-13T11:05:42;1.60;;;0.70;;
7571;SDS011;3827;49.928;8.548;2023-07-13T11:08:13;0.70;;;0.70;;
7571;SDS011;3827;49.928;8.548;2023-07-13T11:10:46;1.40;;;0.73;;
7571;SDS011;3827;49.928;8.548;2023-07-13T11:13:35;0.93;;;0.70;;
7571;SDS011;3827;49.928;8.548;2023-07-13T11:22:12;1.42;;;0.90;;
7571;SDS011;3827;49.928;8.548;2023-07-13T11:24:49;1.00;;;0.85;;
7571;SDS011;3827;49.928;8.548;2023-07-13T11:27:22;1.73;;;0.85;;
7571;SDS011;3827;49.928;8.548;2023-07-13T11:33:07;1.67;;;0.85;;
7571;SDS011;3827;49.928;8.548;2023-07-13T11:35:41;0.85;;;0.68;;
7571;SDS011;3827;49.928;8.548;2023-07-13T11:38:18;0.98;;;0.70;;
7571;SDS011;3827;49.928;8.548;2023-07-13T11:40:47;1.42;;;0.73;;
7571;SDS011;3827;49.928;8.548;2023-07-13T11:43:16;1.50;;;0.70;;
7571;SDS011;3827;49.928;8.548;2023-07-13T11:45:43;2.00;;;0.60;;
7571;SDS011;3827;49.928;8.548;2023-07-13T11:48:17;1.65;;;0.90;;
7571;SDS011;3827;49.928;8.548;2023-07-13T11:50:49;1.50;;;0.77;;
7571;SDS011;3827;49.928;8.548;2023-07-13T11:53:24;0.82;;;0.80;;
7571;SDS011;3827;49.928;8.548;2023-07-13T11:55:53;1.13;;;0.75;;
7571;SDS011;3827;49.928;8.548;2023-07-13T11:58:21;0.80;;;0.70;;
7571;SDS011;3827;49.928;8.548;2023-07-13T12:00:50;0.70;;;0.70;;
7571;SDS011;3827;49.928;8.548;2023-07-13T12:03:18;0.70;;;0.65;;
7571;SDS011;3827;49.928;8.548;2023-07-13T12:05:56;1.23;;;0.80;;
7571;SDS011;3827;49.928;8.548;2023-07-13T12:08:28;1.02;;;0.70;;
7571;SDS011;3827;49.928;8.548;2023-07-13T12:10:59;0.90;;;0.85;;
7571;SDS011;3827;49.928;8.548;2023-07-13T12:13:34;2.13;;;0.70;;
7571;SDS011;3827;49.928;8.548;2023-07-13T12:16:07;0.95;;;0.77;;
7571;SDS011;3827;49.928;8.548;2023-07-13T12:18:39;0.93;;;0.80;;
7571;SDS011;3827;49.928;8.548;2023-07-13T12:21:10;1.30;;;0.60;;
7571;SDS011;3827;49.928;8.548;2023-07-13T12:23:42;1.13;;;0.73;;
7571;SDS011;3827;49.928;8.548;2023-07-13T12:26:10;1.52;;;0.80;;
7571;SDS011;3827;49.928;8.548;2023-07-13T12:28:38;0.90;;;0.65;;
7571;SDS011;3827;49.928;8.548;2023-07-13T12:31:19;0.88;;;0.80;;
7571;SDS011;3827;49.928;8.548;2023-07-13T12:33:55;1.63;;;0.97;;
7571;SDS011;3827;49.928;8.548;2023-07-13T12:36:23;1.38;;;0.70;;
7571;SDS011;3827;49.928;8.548;2023-07-13T12:38:51;1.20;;;1.00;;
7571;SDS011;3827;49.928;8.548;2023-07-13T12:41:18;0.83;;;0.70;;
7571;SDS011;3827;49.928;8.548;2023-07-13T12:43:45;2.05;;;0.77;;
7571;SDS011;3827;49.928;8.548;2023-07-13T12:46:17;0.77;;;0.77;;
7571;SDS011;3827;49.928;8.548;2023-07-13T12:48:48;1.58;;;0.80;;
7571;SDS011;3827;49.928;8.548;2023-07-13T12:51:15;0.73;;;0.70;;
7571;SDS011;3827;49.928;8.548;2023-07-13T12:53:43;0.75;;;0.63;;
7571;SDS011;3827;49.928;8.548;2023-07-13T12:56:18;1.30;;;0.70;;
7571;SDS011;3827;49.928;8.548;2023-07-13T12:58:49;1.70;;;1.00;;
7571;SDS011;3827;49.928;8.548;2023-07-13T13:01:20;1.10;;;0.67;;
7571;SDS011;3827;49.928;8.548;2023-07-13T13:03:49;1.20;;;0.73;;
7571;SDS011;3827;49.928;8.548;2023-07-13T13:06:21;1.05;;;0.73;;
7571;SDS011;3827;49.928;8.548;2023-07-13T13:08:51;0.65;;;0.63;;
7571;SDS011;3827;49.928;8.548;2023-07-13T13:11:21;2.53;;;0.73;;
7571;SDS011;3827;49.928;8.548;2023-07-13T13:13:49;0.82;;;0.60;;
7571;SDS011;3827;49.928;8.548;2023-07-13T13:16:19;1.20;;;0.80;;
7571;SDS011;3827;49.928;8.548;2023-07-13T13:18:47;1.02;;;0.93;;
7571;SDS011;3827;49.928;8.548;2023-07-13T13:21:16;0.82;;;0.63;;
7571;SDS011;3827;49.928;8.548;2023-07-13T13:23:44;1.80;;;0.90;;
7571;SDS011;3827;49.928;8.548;2023-07-13T13:26:11;1.58;;;0.70;;
7571;SDS011;3827;49.928;8.548;2023-07-13T13:28:41;0.88;;;0.70;;
7571;SDS011;3827;49.928;8.548;2023-07-13T13:31:09;1.45;;;0.70;;
7571;SDS011;3827;49.928;8.548;2023-07-13T13:33:38;1.27;;;0.70;;
7571;SDS011;3827;49.928;8.548;2023-07-13T13:36:09;1.13;;;0.80;;
7571;SDS011;3827;49.928;8.548;2023-07-13T13:38:40;1.35;;;0.70;;
7571;SDS011;3827;49.928;8.548;2023-07-13T13:41:07;1.20;;;0.60;;
7571;SDS011;3827;49.928;8.548;2023-07-13T13:43:36;1.55;;;0.70;;
7571;SDS011;3827;49.928;8.548;2023-07-13T13:46:10;1.30;;;0.90;;
7571;SDS011;3827;49.928;8.548;2023-07-13T13:48:41;0.88;;;0.80;;
7571;SDS011;3827;49.928;8.548;2023-07-13T13:51:12;1.73;;;0.93;;
7571;SDS011;3827;49.928;8.548;2023-07-13T13:53:41;1.25;;;0.85;;
7571;SDS011;3827;49.928;8.548;2023-07-13T13:56:08;1.10;;;0.90;;
7571;SDS011;3827;49.928;8.548;2023-07-13T13:58:35;1.27;;;0.95;;
7571;SDS011;3827;49.928;8.548;2023-07-13T14:01:01;1.00;;;0.70;;
7571;SDS011;3827;49.928;8.548;2023-07-13T14:03:32;0.70;;;0.57;;
7571;SDS011;3827;49.928;8.548;2023-07-13T14:05:59;3.25;;;0.77;;
7571;SDS011;3827;49.928;8.548;2023-07-13T14:08:26;0.70;;;0.70;;
7571;SDS011;3827;49.928;8.548;2023-07-13T14:10:53;1.58;;;0.60;;
7571;SDS011;3827;49.928;8.548;2023-07-13T14:13:24;0.98;;;0.82;;
7571;SDS011;3827;49.928;8.548;2023-07-13T14:16:02;1.70;;;0.70;;
7571;SDS011;3827;49.928;8.548;2023-07-13T14:18:36;0.77;;;0.70;;
7571;SDS011;3827;49.928;8.548;2023-07-13T14:21:03;0.90;;;0.70;;
7571;SDS011;3827;49.928;8.548;2023-07-13T14:23:37;2.70;;;1.40;;
7571;SDS011;3827;49.928;8.548;2023-07-13T14:26:07;1.40;;;0.75;;
7571;SDS011;3827;49.928;8.548;2023-07-13T14:28:36;1.02;;;0.77;;
7571;SDS011;3827;49.928;8.548;2023-07-13T14:31:07;1.48;;;0.77;;
7571;SDS011;3827;49.928;8.548;2023-07-13T14:33:35;1.77;;;0.80;;
7571;SDS011;3827;49.928;8.548;2023-07-13T14:36:02;0.80;;;0.70;;
7571;SDS011;3827;49.928;8.548;2023-07-13T14:38:31;0.77;;;0.77;;
7571;SDS011;3827;49.928;8.548;2023-07-13T14:40:58;1.60;;;0.70;;
7571;SDS011;3827;49.928;8.548;2023-07-13T14:43:24;2.97;;;0.90;;
7571;SDS011;3827;49.928;8.548;2023-07-13T14:45:53;1.40;;;0.77;;
7571;SDS011;3827;49.928;8.548;2023-07-13T14:48:22;1.23;;;0.90;;
7571;SDS011;3827;49.928;8.548;2023-07-13T14:50:53;1.45;;;0.70;;
7571;SDS011;3827;49.928;8.548;2023-07-13T14:53:21;1.23;;;0.60;;
7571;SDS011;3827;49.928;8.548;2023-07-13T14:55:49;1.80;;;0.65;;
7571;SDS011;3827;49.928;8.548;2023-07-13T14:58:15;1.30;;;0.67;;
7571;SDS011;3827;49.928;8.548;2023-07-13T15:00:42;0.60;;;0.60;;
7571;SDS011;3827;49.928;8.548;2023-07-13T15:03:14;1.90;;;0.75;;
7571;SDS011;3827;49.928;8.548;2023-07-13T15:05:46;2.75;;;0.70;;
7571;SDS011;3827;49.928;8.548;2023-07-13T15:08:16;1.88;;;0.70;;
7571;SDS011;3827;49.928;8.548;2023-07-13T15:10:42;0.80;;;0.55;;
7571;SDS011;3827;49.928;8.548;2023-07-13T15:13:13;2.58;;;0.85;;
7571;SDS011;3827;49.928;8.548;2023-07-13T15:15:43;1.20;;;0.60;;
7571;SDS011;3827;49.928;8.548;2023-07-13T15:18:12;0.85;;;0.85;;
7571;SDS011;3827;49.928;8.548;2023-07-13T15:20:42;1.75;;;0.82;;
7571;SDS011;3827;49.928;8.548;2023-07-13T15:23:10;1.23;;;0.80;;
7571;SDS011;3827;49.928;8.548;2023-07-13T15:25:39;0.80;;;0.70;;
7571;SDS011;3827;49.928;8.548;2023-07-13T15:28:07;0.75;;;0.73;;
7571;SDS011;3827;49.928;8.548;2023-07-13T15:30:36;1.57;;;0.70;;
7571;SDS011;3827;49.928;8.548;2023-07-13T15:33:09;0.68;;;0.60;;